Time;durP1;ratioP1;P1;durP2;ratioP2;P2;SDS_P1;SDS_P2;PMS_P1;PMS_P2;Temp;Humidity;BMP_temperature;BMP_pressure;BME280_temperature;BME280_humidity;BME280_pressure;Samples;Min_cycle;Max_cycle;Signal;HPM_P1;HPM_P2
2023/07/13 00:01:54;;;;;;;6.97;5.10;;;;;;;;;;5026481;28;20033;-71
2023/07/13 00:04:20;;;;;;;9.57;4.55;;;;;;;;;;5049878;28;20463;-71
2023/07/13 00:06:46;;;;;;;8.05;4.78;;;;;;;;;;5033729;28;20057;-72
2023/07/13 00:09:13;;;;;;;8.98;4.63;;;;;;;;;;5035677;28;20130;-72
2023/07/13 00:11:38;;;;;;;7.43;4.20;;;;;;;;;;5025921;28;20157;-71
2023/07/13 00:14:03;;;;;;;9.02;4.50;;;;;;;;;;5008326;28;20034;-71
2023/07/13 00:16:28;;;;;;;8.07;4.63;;;;;;;;;;5041306;28;20103;-72
2023/07/13 00:18:54;;;;;;;6.93;4.10;;;;;;;;;;5008267;28;20292;-72
2023/07/13 00:21:19;;;;;;;7.00;4.20;;;;;;;;;;5030993;28;20044;-71
2023/07/13 00:23:44;;;;;;;8.55;4.70;;;;;;;;;;5035344;28;20504;-71
2023/07/13 00:26:10;;;;;;;6.67;4.40;;;;;;;;;;5044490;28;20037;-72
2023/07/13 00:28:35;;;;;;;8.77;4.70;;;;;;;;;;5014424;28;20362;-72
2023/07/13 00:31:01;;;;;;;7.07;4.43;;;;;;;;;;5042630;28;20025;-72
2023/07/13 00:33:27;;;;;;;8.23;4.93;;;;;;;;;;5027979;28;20311;-72
2023/07/13 00:35:52;;;;;;;7.15;4.28;;;;;;;;;;5027443;28;20052;-72
2023/07/13 00:38:18;;;;;;;8.95;4.90;;;;;;;;;;5022901;28;20421;-72
2023/07/13 00:40:43;;;;;;;7.43;4.57;;;;;;;;;;5038647;28;20029;-72
2023/07/13 00:43:16;;;;;;;6.45;4.20;;;;;;;;;;5027318;28;20303;-71
2023/07/13 00:45:44;;;;;;;7.53;4.30;;;;;;;;;;5044976;28;20495;-71
2023/07/13 00:48:12;;;;;;;8.40;4.50;;;;;;;;;;5041271;28;20527;-72
2023/07/13 00:50:38;;;;;;;9.20;5.22;;;;;;;;;;5038891;28;20615;-71
2023/07/13 00:53:03;;;;;;;6.33;4.77;;;;;;;;;;5043390;28;20049;-71
2023/07/13 00:55:28;;;;;;;8.20;5.00;;;;;;;;;;5026945;28;20817;-72
2023/07/13 00:57:53;;;;;;;7.47;5.20;;;;;;;;;;5030953;28;20049;-72
2023/07/13 01:00:18;;;;;;;7.37;4.53;;;;;;;;;;5022453;28;20291;-71
2023/07/13 01:02:45;;;;;;;8.57;4.80;;;;;;;;;;5046365;28;20049;-72
2023/07/13 01:05:15;;;;;;;8.02;4.70;;;;;;;;;;5015512;28;20950;-69
2023/07/13 01:07:40;;;;;;;6.45;4.38;;;;;;;;;;5015959;28;20147;-70
2023/07/13 01:10:06;;;;;;;9.38;5.10;;;;;;;;;;5011603;28;20221;-69
2023/07/13 01:12:31;;;;;;;9.18;5.15;;;;;;;;;;5008228;28;20819;-71
2023/07/13 01:14:58;;;;;;;6.47;4.70;;;;;;;;;;5030911;28;20564;-71
2023/07/13 01:17:23;;;;;;;6.93;4.85;;;;;;;;;;5025728;28;20314;-71
2023/07/13 01:19:48;;;;;;;8.13;4.73;;;;;;;;;;5042481;28;20076;-71
2023/07/13 01:22:14;;;;;;;9.23;5.70;;;;;;;;;;5043392;28;20287;-72
2023/07/13 01:24:40;;;;;;;11.60;5.85;;;;;;;;;;5042472;28;20287;-71
2023/07/13 01:27:06;;;;;;;7.93;5.05;;;;;;;;;;5018789;28;20074;-71
2023/07/13 01:29:32;;;;;;;6.82;4.72;;;;;;;;;;5026991;28;20025;-71
2023/07/13 01:31:57;;;;;;;7.82;5.03;;;;;;;;;;5044255;28;20025;-72
2023/07/13 01:34:23;;;;;;;7.93;5.13;;;;;;;;;;5044936;28;20534;-70
2023/07/13 01:36:48;;;;;;;7.90;5.00;;;;;;;;;;5026243;28;20740;-71
2023/07/13 01:39:14;;;;;;;7.23;5.00;;;;;;;;;;5037692;28;20083;-70
2023/07/13 01:41:39;;;;;;;7.55;5.28;;;;;;;;;;5007504;28;20355;-71
2023/07/13 01:44:05;;;;;;;6.97;5.13;;;;;;;;;;5018140;28;20112;-71
2023/07/13 01:46:30;;;;;;;8.43;5.57;;;;;;;;;;5043741;28;20271;-72
2023/07/13 01:48:55;;;;;;;7.87;5.20;;;;;;;;;;5028922;28;20013;-72
2023/07/13 01:51:20;;;;;;;11.47;6.37;;;;;;;;;;5025717;28;20283;-71
2023/07/13 01:53:46;;;;;;;7.80;5.15;;;;;;;;;;5009300;28;20021;-72
2023/07/13 01:56:11;;;;;;;7.70;5.38;;;;;;;;;;5011219;28;20021;-71
2023/07/13 01:58:36;;;;;;;8.20;5.20;;;;;;;;;;5031049;28;20454;-71
2023/07/13 02:01:01;;;;;;;9.27;5.43;;;;;;;;;;5033691;28;20275;-71
2023/07/13 02:03:27;;;;;;;9.33;5.53;;;;;;;;;;5050995;28;20299;-71
2023/07/13 02:05:52;;;;;;;7.37;5.43;;;;;;;;;;5038493;28;20021;-71
2023/07/13 02:08:17;;;;;;;10.57;5.23;;;;;;;;;;5046567;28;20272;-70
2023/07/13 02:10:42;;;;;;;8.88;4.90;;;;;;;;;;5024641;28;20074;-71
2023/07/13 02:13:08;;;;;;;7.67;5.37;;;;;;;;;;5047415;28;20464;-71
2023/07/13 02:15:33;;;;;;;7.72;5.00;;;;;;;;;;5043771;28;20464;-71
2023/07/13 02:17:58;;;;;;;8.23;5.40;;;;;;;;;;5043809;28;20024;-71
2023/07/13 02:20:24;;;;;;;8.47;5.40;;;;;;;;;;5048834;28;20036;-72
2023/07/13 02:22:49;;;;;;;9.55;5.55;;;;;;;;;;5030126;28;20279;-71
2023/07/13 02:25:14;;;;;;;9.90;5.47;;;;;;;;;;5028193;28;20608;-72
2023/07/13 02:27:40;;;;;;;8.17;5.23;;;;;;;;;;5013225;28;20388;-71
2023/07/13 02:30:05;;;;;;;8.30;5.30;;;;;;;;;;5039489;28;20339;-71
2023/07/13 02:32:30;;;;;;;8.98;5.13;;;;;;;;;;5043547;28;20053;-71
2023/07/13 02:34:56;;;;;;;8.90;4.97;;;;;;;;;;5046302;28;20037;-71
2023/07/13 02:37:21;;;;;;;11.47;5.57;;;;;;;;;;5047611;28;20300;-71
2023/07/13 02:39:47;;;;;;;9.93;5.30;;;;;;;;;;5046327;28;20037;-71
2023/07/13 02:42:13;;;;;;;8.65;5.32;;;;;;;;;;5028675;28;20044;-71
2023/07/13 02:44:38;;;;;;;9.63;5.37;;;;;;;;;;5023114;28;20037;-71
2023/07/13 02:47:03;;;;;;;8.47;5.27;;;;;;;;;;5041838;28;20040;-71
2023/07/13 02:49:28;;;;;;;6.35;5.07;;;;;;;;;;5046608;28;20041;-70
2023/07/13 02:51:53;;;;;;;9.03;5.50;;;;;;;;;;5026777;28;20617;-71
2023/07/13 02:54:19;;;;;;;7.97;5.23;;;;;;;;;;5045979;28;20656;-71
2023/07/13 02:56:44;;;;;;;9.10;5.13;;;;;;;;;;5047599;28;20791;-71
2023/07/13 02:59:10;;;;;;;7.50;5.15;;;;;;;;;;5035717;28;20360;-71
2023/07/13 03:01:36;;;;;;;10.38;5.50;;;;;;;;;;5028345;28;20120;-72
2023/07/13 03:04:01;;;;;;;7.83;5.03;;;;;;;;;;5048096;28;20550;-72
2023/07/13 03:06:30;;;;;;;8.10;5.05;;;;;;;;;;5036460;28;20263;-71
2023/07/13 03:08:55;;;;;;;7.90;4.97;;;;;;;;;;5039717;28;20091;-71
2023/07/13 03:11:20;;;;;;;7.57;5.10;;;;;;;;;;5023162;28;20040;-71
2023/07/13 03:13:46;;;;;;;6.80;4.67;;;;;;;;;;5031849;28;20307;-71
2023/07/13 03:16:11;;;;;;;8.85;4.65;;;;;;;;;;5048612;28;20783;-71
2023/07/13 03:18:36;;;;;;;6.65;5.15;;;;;;;;;;5040068;28;20048;-72
2023/07/13 03:21:02;;;;;;;9.05;5.38;;;;;;;;;;5008839;28;20048;-72
2023/07/13 03:23:27;;;;;;;7.75;5.38;;;;;;;;;;5027824;28;20037;-71
2023/07/13 03:26:22;;;;;;;8.27;5.30;;;;;;;;;;5045366;28;20141;-72
2023/07/13 03:28:47;;;;;;;8.45;5.60;;;;;;;;;;5022869;28;20089;-72
2023/07/13 03:31:16;;;;;;;10.10;5.93;;;;;;;;;;5046565;28;20494;-71
2023/07/13 03:33:41;;;;;;;8.23;5.60;;;;;;;;;;5038885;28;20291;-71
2023/07/13 03:36:08;;;;;;;11.05;5.93;;;;;;;;;;5036879;28;20041;-72
2023/07/13 03:38:33;;;;;;;10.15;5.57;;;;;;;;;;5039890;28;20029;-71
2023/07/13 03:40:59;;;;;;;8.00;5.30;;;;;;;;;;5042126;28;20745;-71
2023/07/13 03:43:24;;;;;;;11.18;6.07;;;;;;;;;;5048185;28;20309;-72
2023/07/13 03:45:49;;;;;;;7.67;5.60;;;;;;;;;;5022411;28;20039;-71
2023/07/13 03:48:14;;;;;;;7.40;5.63;;;;;;;;;;5027055;28;20299;-71
2023/07/13 03:50:40;;;;;;;8.03;5.57;;;;;;;;;;5042536;28;20094;-71
2023/07/13 03:53:05;;;;;;;7.82;5.63;;;;;;;;;;5036105;28;20283;-71
2023/07/13 03:55:30;;;;;;;11.07;5.77;;;;;;;;;;5045078;28;20037;-71
2023/07/13 03:57:59;;;;;;;8.73;5.85;;;;;;;;;;5036685;28;20290;-71
2023/07/13 04:00:25;;;;;;;7.77;5.83;;;;;;;;;;5040206;28;20582;-71
2023/07/13 04:02:50;;;;;;;9.63;5.90;;;;;;;;;;5042301;28;20113;-71
2023/07/13 04:05:15;;;;;;;9.18;6.18;;;;;;;;;;5031756;28;20036;-71
2023/07/13 04:07:40;;;;;;;10.25;6.45;;;;;;;;;;5043575;28;20063;-71
2023/07/13 04:10:06;;;;;;;8.20;6.35;;;;;;;;;;5035066;28;20040;-71
2023/07/13 04:12:31;;;;;;;8.65;5.97;;;;;;;;;;5043496;28;20033;-71
2023/07/13 04:14:56;;;;;;;10.97;6.53;;;;;;;;;;5047112;28;20033;-71
2023/07/13 04:17:22;;;;;;;10.53;7.20;;;;;;;;;;5040233;28;20037;-71
2023/07/13 04:19:48;;;;;;;10.40;6.33;;;;;;;;;;5060613;28;20370;-70
2023/07/13 04:22:13;;;;;;;10.75;6.80;;;;;;;;;;5065040;28;20029;-72
2023/07/13 04:24:39;;;;;;;11.03;6.60;;;;;;;;;;5061644;28;20035;-71
2023/07/13 04:27:04;;;;;;;9.27;6.97;;;;;;;;;;5069061;28;20318;-73
2023/07/13 04:29:30;;;;;;;11.32;6.78;;;;;;;;;;5061357;28;20135;-72
2023/07/13 04:31:55;;;;;;;11.05;7.13;;;;;;;;;;5045196;28;20049;-72
2023/07/13 04:34:20;;;;;;;9.80;7.20;;;;;;;;;;5046147;28;20037;-71
2023/07/13 04:36:45;;;;;;;10.97;7.57;;;;;;;;;;5051230;28;20568;-71
2023/07/13 04:39:11;;;;;;;11.77;7.47;;;;;;;;;;5046300;28;20479;-73
2023/07/13 04:41:36;;;;;;;10.55;7.85;;;;;;;;;;5048269;28;20533;-73
2023/07/13 04:44:02;;;;;;;12.27;7.90;;;;;;;;;;5050348;28;20534;-73
2023/07/13 04:46:28;;;;;;;14.38;7.40;;;;;;;;;;5016634;28;20125;-74
2023/07/13 04:48:53;;;;;;;13.57;9.07;;;;;;;;;;5036123;28;20514;-73
2023/07/13 04:51:18;;;;;;;14.15;8.70;;;;;;;;;;5024529;28;20689;-73
2023/07/13 04:53:44;;;;;;;12.07;8.17;;;;;;;;;;5028186;28;20029;-74
2023/07/13 04:56:09;;;;;;;13.50;8.43;;;;;;;;;;5045032;28;20288;-74
2023/07/13 04:58:34;;;;;;;14.43;9.80;;;;;;;;;;5029102;28;20033;-73
2023/07/13 05:01:00;;;;;;;13.90;8.85;;;;;;;;;;5026129;28;20825;-73
2023/07/13 05:03:26;;;;;;;13.40;8.70;;;;;;;;;;5033615;28;20060;-73
2023/07/13 05:05:55;;;;;;;12.02;8.50;;;;;;;;;;5040396;28;20462;-74
2023/07/13 05:08:20;;;;;;;12.98;7.70;;;;;;;;;;5023949;28;20499;-72
2023/07/13 05:10:45;;;;;;;14.20;9.03;;;;;;;;;;5035780;28;20041;-73
2023/07/13 05:13:11;;;;;;;13.23;9.00;;;;;;;;;;5028878;28;20251;-73
2023/07/13 05:15:36;;;;;;;14.13;8.30;;;;;;;;;;5007736;28;20083;-73
2023/07/13 05:18:01;;;;;;;15.53;9.33;;;;;;;;;;5016656;28;20059;-71
2023/07/13 05:20:26;;;;;;;21.07;13.67;;;;;;;;;;5009529;28;20295;-72
2023/07/13 05:22:51;;;;;;;15.18;10.05;;;;;;;;;;5019775;28;20136;-73
2023/07/13 05:25:29;;;;;;;12.87;9.00;;;;;;;;;;5041799;28;20186;-73
2023/07/13 05:27:54;;;;;;;14.90;9.15;;;;;;;;;;5047075;28;20052;-72
2023/07/13 05:30:19;;;;;;;16.07;10.17;;;;;;;;;;5026181;28;20101;-72
2023/07/13 05:32:45;;;;;;;13.80;9.70;;;;;;;;;;5037614;28;20131;-74
2023/07/13 05:35:10;;;;;;;17.17;10.15;;;;;;;;;;5046036;28;20429;-73
2023/07/13 05:37:36;;;;;;;14.63;10.27;;;;;;;;;;5020448;28;22232;-73
2023/07/13 05:40:02;;;;;;;12.60;9.63;;;;;;;;;;5042692;28;20297;-73
2023/07/13 05:42:27;;;;;;;14.80;9.77;;;;;;;;;;5044512;28;20618;-69
2023/07/13 05:44:52;;;;;;;16.00;9.55;;;;;;;;;;5037168;28;21922;-70
2023/07/13 05:47:17;;;;;;;16.58;10.25;;;;;;;;;;5020526;28;20045;-74
2023/07/13 05:49:43;;;;;;;12.73;10.00;;;;;;;;;;5042846;28;20447;-73
2023/07/13 05:52:08;;;;;;;16.08;9.50;;;;;;;;;;5039006;28;20318;-74
2023/07/13 05:54:33;;;;;;;14.13;9.57;;;;;;;;;;5036534;28;20487;-73
2023/07/13 05:56:58;;;;;;;12.67;9.60;;;;;;;;;;5022559;28;20115;-69
2023/07/13 05:59:24;;;;;;;13.20;9.17;;;;;;;;;;5042956;28;20299;-71
2023/07/13 06:01:52;;;;;;;14.82;9.30;;;;;;;;;;5036606;28;20295;-71
2023/07/13 06:04:17;;;;;;;13.20;8.98;;;;;;;;;;5022819;28;20171;-74
2023/07/13 06:06:42;;;;;;;14.35;8.32;;;;;;;;;;5043882;28;20131;-75
2023/07/13 06:09:07;;;;;;;13.40;8.67;;;;;;;;;;5029045;28;20065;-76
2023/07/13 06:11:33;;;;;;;10.57;7.67;;;;;;;;;;5003871;28;20307;-74
2023/07/13 06:13:58;;;;;;;12.05;8.27;;;;;;;;;;5029077;28;20596;-74
2023/07/13 06:16:23;;;;;;;13.05;7.80;;;;;;;;;;5020951;28;20045;-76
2023/07/13 06:18:48;;;;;;;11.80;8.00;;;;;;;;;;5015059;28;20048;-80
2023/07/13 06:21:14;;;;;;;12.37;7.70;;;;;;;;;;5010994;28;20307;-74
2023/07/13 06:23:40;;;;;;;11.50;7.85;;;;;;;;;;5033798;28;20056;-74
2023/07/13 06:26:05;;;;;;;13.50;8.17;;;;;;;;;;5038672;28;20037;-74
2023/07/13 06:28:31;;;;;;;10.52;8.15;;;;;;;;;;5040183;28;20033;-74
2023/07/13 06:30:56;;;;;;;11.95;8.68;;;;;;;;;;5023362;28;20040;-75
2023/07/13 06:33:22;;;;;;;13.35;8.25;;;;;;;;;;5025743;28;20047;-76
2023/07/13 06:35:47;;;;;;;13.57;8.17;;;;;;;;;;5023571;28;20118;-75
2023/07/13 06:38:12;;;;;;;12.00;7.73;;;;;;;;;;5013506;28;20300;-75
2023/07/13 06:40:37;;;;;;;12.10;7.70;;;;;;;;;;5038554;28;20794;-72
2023/07/13 06:43:03;;;;;;;10.73;7.43;;;;;;;;;;5034704;28;20529;-74
2023/07/13 06:45:28;;;;;;;10.97;7.57;;;;;;;;;;5034360;28;20542;-74
2023/07/13 06:47:53;;;;;;;10.27;6.70;;;;;;;;;;5032691;28;20283;-74
2023/07/13 06:50:18;;;;;;;9.77;6.93;;;;;;;;;;5033654;28;20047;-74
2023/07/13 06:52:44;;;;;;;13.98;7.25;;;;;;;;;;5033378;28;20287;-74
2023/07/13 06:55:09;;;;;;;10.43;6.65;;;;;;;;;;5035576;28;20120;-74
2023/07/13 06:57:34;;;;;;;10.93;6.60;;;;;;;;;;5030716;28;20041;-74
2023/07/13 07:00:00;;;;;;;12.68;7.15;;;;;;;;;;5018704;28;20036;-74
2023/07/13 07:02:25;;;;;;;12.60;6.73;;;;;;;;;;5020291;28;20037;-74
2023/07/13 07:04:50;;;;;;;12.17;7.00;;;;;;;;;;5039933;28;20299;-75
2023/07/13 07:07:15;;;;;;;11.47;6.73;;;;;;;;;;5040903;28;20037;-74
2023/07/13 07:09:40;;;;;;;10.00;7.03;;;;;;;;;;5038414;28;20283;-75
2023/07/13 07:12:06;;;;;;;10.33;6.93;;;;;;;;;;5018806;28;20124;-74
2023/07/13 07:14:31;;;;;;;11.90;6.93;;;;;;;;;;5034290;28;20068;-74
2023/07/13 07:16:58;;;;;;;11.48;6.85;;;;;;;;;;5035539;28;20037;-75
2023/07/13 07:19:23;;;;;;;11.23;7.25;;;;;;;;;;5000626;28;20040;-74
2023/07/13 07:21:48;;;;;;;8.13;6.40;;;;;;;;;;5034145;28;20701;-74
2023/07/13 07:24:15;;;;;;;10.87;6.70;;;;;;;;;;5033530;28;20314;-74
2023/07/13 07:26:40;;;;;;;7.43;6.20;;;;;;;;;;5032452;28;20037;-75
2023/07/13 07:29:06;;;;;;;8.50;6.30;;;;;;;;;;5033544;28;20091;-74
2023/07/13 07:31:31;;;;;;;7.88;6.13;;;;;;;;;;5033168;28;20283;-74
2023/07/13 07:33:56;;;;;;;9.27;6.32;;;;;;;;;;5033053;28;20685;-74
2023/07/13 07:36:21;;;;;;;7.77;6.07;;;;;;;;;;5016127;28;20047;-74
2023/07/13 07:38:47;;;;;;;9.50;6.37;;;;;;;;;;5017090;28;20299;-74
2023/07/13 07:41:12;;;;;;;7.70;6.23;;;;;;;;;;5029445;28;20498;-75
2023/07/13 07:43:37;;;;;;;8.47;6.17;;;;;;;;;;5035851;28;20044;-74
2023/07/13 07:46:02;;;;;;;8.23;6.60;;;;;;;;;;5030084;28;20290;-74
2023/07/13 07:48:28;;;;;;;9.20;6.57;;;;;;;;;;5024533;28;20064;-74
2023/07/13 07:50:53;;;;;;;8.57;6.55;;;;;;;;;;5043804;28;20167;-86
2023/07/13 07:53:18;;;;;;;9.77;6.20;;;;;;;;;;5037589;28;20416;-87
2023/07/13 07:55:44;;;;;;;9.57;6.28;;;;;;;;;;5024650;28;20303;-88
2023/07/13 07:58:09;;;;;;;8.85;5.78;;;;;;;;;;5041008;28;20048;-87
2023/07/13 08:00:35;;;;;;;7.97;6.25;;;;;;;;;;5011069;28;20049;-78
2023/07/13 08:03:00;;;;;;;9.32;6.38;;;;;;;;;;5046030;28;20117;-87
2023/07/13 08:05:26;;;;;;;8.63;5.90;;;;;;;;;;5020679;28;20051;-86
2023/07/13 08:07:51;;;;;;;8.88;6.68;;;;;;;;;;5037654;28;20292;-88
2023/07/13 08:10:16;;;;;;;9.03;6.20;;;;;;;;;;5007993;28;20060;-87
2023/07/13 08:12:41;;;;;;;6.90;5.93;;;;;;;;;;5021911;28;20029;-88
2023/07/13 08:15:09;;;;;;;7.73;6.13;;;;;;;;;;5027423;28;20025;-89
2023/07/13 08:17:34;;;;;;;7.55;5.82;;;;;;;;;;5036444;28;20361;-87
2023/07/13 08:20:00;;;;;;;8.27;6.10;;;;;;;;;;5007555;28;20044;-88
2023/07/13 08:22:25;;;;;;;7.10;6.07;;;;;;;;;;5039757;28;20038;-88
2023/07/13 08:24:55;;;;;;;7.50;5.60;;;;;;;;;;5040604;28;20827;-88
2023/07/13 08:27:21;;;;;;;8.50;6.85;;;;;;;;;;5024208;28;20033;-87
2023/07/13 08:29:47;;;;;;;7.63;5.65;;;;;;;;;;5036631;28;20041;-85
2023/07/13 08:32:12;;;;;;;6.53;5.55;;;;;;;;;;5038075;28;20639;-87
2023/07/13 08:34:37;;;;;;;6.60;5.43;;;;;;;;;;5006025;28;20514;-87
2023/07/13 08:37:03;;;;;;;8.13;5.97;;;;;;;;;;5036042;28;20508;-85
2023/07/13 08:39:29;;;;;;;7.32;6.40;;;;;;;;;;5022242;28;20314;-88
2023/07/13 08:41:56;;;;;;;8.38;5.90;;;;;;;;;;5040178;28;20117;-86
2023/07/13 08:44:25;;;;;;;7.40;5.25;;;;;;;;;;5046887;28;20319;-88
2023/07/13 08:46:50;;;;;;;6.80;5.22;;;;;;;;;;5026331;28;20056;-89
2023/07/13 08:49:16;;;;;;;6.37;5.30;;;;;;;;;;5026496;28;20013;-89
2023/07/13 08:51:43;;;;;;;7.47;5.18;;;;;;;;;;5026233;28;20833;-89
2023/07/13 08:54:23;;;;;;;7.10;5.85;;;;;;;;;;5023827;28;20013;-88
2023/07/13 08:56:49;;;;;;;6.40;5.03;;;;;;;;;;5026606;28;20033;-88
2023/07/13 08:59:16;;;;;;;6.97;5.10;;;;;;;;;;5024673;28;20475;-88
2023/07/13 09:02:00;;;;;;;7.45;5.07;;;;;;;;;;5029562;28;20060;-86
2023/07/13 09:04:26;;;;;;;6.55;4.93;;;;;;;;;;5041079;28;20083;-82
2023/07/13 09:06:59;;;;;;;7.07;5.40;;;;;;;;;;5043306;28;20084;-88
2023/07/13 09:09:33;;;;;;;6.72;5.50;;;;;;;;;;5035147;28;20051;-88
2023/07/13 09:12:05;;;;;;;8.13;4.75;;;;;;;;;;5021491;28;20037;-80
2023/07/13 09:14:46;;;;;;;5.95;4.68;;;;;;;;;;5019730;28;20029;-87
2023/07/13 09:17:18;;;;;;;6.90;5.57;;;;;;;;;;5034873;28;20183;-87
2023/07/13 09:19:43;;;;;;;6.35;5.03;;;;;;;;;;5034690;28;20051;-82
2023/07/13 09:22:11;;;;;;;6.27;5.07;;;;;;;;;;5012673;28;20044;-80
2023/07/13 09:24:56;;;;;;;7.82;5.47;;;;;;;;;;5033230;28;20303;-88
2023/07/13 09:27:24;;;;;;;6.55;5.05;;;;;;;;;;5019084;28;20131;-81
2023/07/13 09:29:51;;;;;;;5.40;4.70;;;;;;;;;;5015015;28;20512;-88
2023/07/13 09:32:17;;;;;;;6.78;5.38;;;;;;;;;;5016106;28;20092;-80
2023/07/13 09:34:42;;;;;;;6.25;4.80;;;;;;;;;;5032928;28;20082;-80
2023/07/13 09:37:07;;;;;;;7.70;5.17;;;;;;;;;;5014857;28;20037;-81
2023/07/13 09:39:35;;;;;;;5.97;4.77;;;;;;;;;;5014885;28;20943;-80
2023/07/13 09:42:01;;;;;;;6.95;5.13;;;;;;;;;;5028775;28;20087;-83
2023/07/13 09:44:30;;;;;;;6.65;5.20;;;;;;;;;;5004996;28;20047;-90
2023/07/13 09:46:55;;;;;;;6.35;4.82;;;;;;;;;;5014654;28;20443;-86
2023/07/13 09:49:25;;;;;;;6.90;5.05;;;;;;;;;;5037000;28;20048;-90
2023/07/13 09:51:50;;;;;;;6.85;5.03;;;;;;;;;;5019498;28;20101;-87
2023/07/13 09:54:19;;;;;;;6.65;4.53;;;;;;;;;;5000388;28;20112;-77
2023/07/13 09:56:45;;;;;;;5.93;5.03;;;;;;;;;;5031656;28;20558;-88
2023/07/13 09:59:18;;;;;;;5.20;4.68;;;;;;;;;;5029118;28;20120;-76
2023/07/13 10:01:43;;;;;;;6.05;4.75;;;;;;;;;;5020898;28;20115;-89
2023/07/13 10:04:12;;;;;;;5.40;4.75;;;;;;;;;;5018352;28;20188;-78
2023/07/13 10:06:39;;;;;;;5.70;4.63;;;;;;;;;;5014222;28;20727;-78
2023/07/13 10:09:04;;;;;;;5.88;4.88;;;;;;;;;;5013447;28;20120;-77
2023/07/13 10:11:29;;;;;;;5.93;4.43;;;;;;;;;;5013032;28;22025;-78
2023/07/13 10:13:56;;;;;;;5.70;4.63;;;;;;;;;;5026019;28;20111;-80
2023/07/13 10:16:22;;;;;;;6.25;5.03;;;;;;;;;;5041572;28;20271;-81
2023/07/13 10:18:52;;;;;;;5.40;4.35;;;;;;;;;;5024856;28;20094;-82
2023/07/13 10:21:18;;;;;;;6.25;4.90;;;;;;;;;;5006226;28;20020;-78
2023/07/13 10:23:45;;;;;;;5.97;4.57;;;;;;;;;;5023666;28;20029;-86
2023/07/13 10:26:12;;;;;;;5.47;4.53;;;;;;;;;;5007724;28;20082;-83
2023/07/13 10:28:37;;;;;;;6.10;4.57;;;;;;;;;;5016827;28;20044;-88
2023/07/13 10:31:02;;;;;;;5.97;4.70;;;;;;;;;;5025420;28;20115;-80
2023/07/13 10:33:28;;;;;;;6.10;4.60;;;;;;;;;;5020708;28;20029;-84
2023/07/13 10:35:55;;;;;;;6.23;4.90;;;;;;;;;;5040075;28;20370;-77
2023/07/13 10:38:20;;;;;;;6.38;4.25;;;;;;;;;;5024494;28;20809;-86
2023/07/13 10:40:49;;;;;;;6.47;4.53;;;;;;;;;;5015006;28;20044;-81
2023/07/13 10:43:16;;;;;;;6.00;4.85;;;;;;;;;;5037237;28;20041;-77
2023/07/13 10:45:41;;;;;;;6.05;4.80;;;;;;;;;;5034324;28;20154;-80
2023/07/13 10:48:10;;;;;;;6.40;4.55;;;;;;;;;;5019154;28;20162;-78
2023/07/13 10:50:35;;;;;;;5.15;4.18;;;;;;;;;;5039112;28;20045;-89
2023/07/13 10:53:01;;;;;;;5.65;4.63;;;;;;;;;;5024380;28;20151;-89
2023/07/13 10:55:45;;;;;;;6.05;4.07;;;;;;;;;;5037671;28;20029;-88
2023/07/13 10:58:14;;;;;;;5.55;4.07;;;;;;;;;;5042557;28;20104;-90
2023/07/13 11:00:43;;;;;;;5.30;4.22;;;;;;;;;;5022934;28;20097;-89
2023/07/13 11:03:13;;;;;;;5.17;4.33;;;;;;;;;;5070546;23;20057;-57
2023/07/13 11:05:39;;;;;;;4.60;4.00;;;;;;;;;;5030321;28;20435;-57
2023/07/13 11:08:16;;;;;;;5.20;4.15;;;;;;;;;;5027875;28;20236;-57
2023/07/13 11:10:49;;;;;;;4.75;4.00;;;;;;;;;;5030447;28;20112;-57
2023/07/13 11:13:45;;;;;;;5.45;3.90;;;;;;;;;;5031465;28;20115;-58
2023/07/13 11:16:13;;;;;;;5.20;4.38;;;;;;;;;;5025923;28;20099;-58
2023/07/13 11:18:39;;;;;;;5.22;4.18;;;;;;;;;;5031908;28;20170;-57
2023/07/13 11:21:26;;;;;;;4.87;4.30;;;;;;;;;;5032440;28;20046;-59
2023/07/13 11:23:52;;;;;;;4.53;3.70;;;;;;;;;;5024919;23;20143;-59
2023/07/13 11:26:49;;;;;;;6.05;4.30;;;;;;;;;;5028929;28;21825;-57
2023/07/13 11:29:15;;;;;;;6.18;4.03;;;;;;;;;;5009351;28;20036;-56
2023/07/13 11:31:41;;;;;;;4.75;3.70;;;;;;;;;;5012731;28;20041;-60
2023/07/13 11:34:06;;;;;;;5.32;4.25;;;;;;;;;;5011375;28;20562;-58
2023/07/13 11:36:35;;;;;;;4.82;3.65;;;;;;;;;;5028614;28;20037;-59
2023/07/13 11:39:02;;;;;;;4.80;3.75;;;;;;;;;;5029673;28;20536;-57
2023/07/13 11:41:32;;;;;;;4.80;3.58;;;;;;;;;;5036762;28;20037;-57
2023/07/13 11:44:14;;;;;;;5.05;3.83;;;;;;;;;;5020574;28;20052;-59
2023/07/13 11:46:42;;;;;;;3.90;3.28;;;;;;;;;;5031731;28;20033;-57
2023/07/13 11:49:08;;;;;;;4.50;3.65;;;;;;;;;;5034874;28;20048;-57
2023/07/13 11:51:34;;;;;;;5.10;3.73;;;;;;;;;;5033741;28;20037;-57
2023/07/13 11:54:29;;;;;;;5.13;3.88;;;;;;;;;;5034662;28;20037;-57
2023/07/13 11:57:10;;;;;;;6.03;3.88;;;;;;;;;;5032896;28;20060;-58
2023/07/13 11:59:37;;;;;;;5.28;3.75;;;;;;;;;;5030486;28;20049;-57
2023/07/13 12:02:08;;;;;;;5.40;3.80;;;;;;;;;;5034690;28;20084;-57
2023/07/13 12:04:34;;;;;;;4.00;3.30;;;;;;;;;;5024965;28;20046;-59
2023/07/13 12:07:15;;;;;;;5.32;3.63;;;;;;;;;;5025012;28;20213;-58
2023/07/13 12:09:41;;;;;;;4.25;3.42;;;;;;;;;;5028517;28;20061;-57
2023/07/13 12:12:13;;;;;;;4.38;3.50;;;;;;;;;;5030577;28;20049;-59
2023/07/13 12:14:38;;;;;;;3.83;3.42;;;;;;;;;;5029463;28;20123;-58
2023/07/13 12:17:09;;;;;;;5.07;3.67;;;;;;;;;;5032780;28;20453;-59
2023/07/13 12:19:34;;;;;;;4.22;3.30;;;;;;;;;;5030752;28;20263;-58
2023/07/13 12:21:59;;;;;;;4.17;3.30;;;;;;;;;;5034842;28;20567;-60
2023/07/13 12:24:25;;;;;;;5.25;3.47;;;;;;;;;;5021604;28;20489;-61
2023/07/13 12:26:51;;;;;;;5.72;3.58;;;;;;;;;;5014003;28;20035;-60
2023/07/13 12:29:17;;;;;;;4.45;3.53;;;;;;;;;;5030724;28;20021;-57
2023/07/13 12:31:44;;;;;;;4.95;3.92;;;;;;;;;;5032078;28;20031;-58
2023/07/13 12:34:16;;;;;;;5.15;3.60;;;;;;;;;;5028766;28;20030;-57
2023/07/13 12:37:01;;;;;;;4.93;3.58;;;;;;;;;;5030368;28;20024;-59
2023/07/13 12:39:34;;;;;;;4.78;3.30;;;;;;;;;;5037803;28;20034;-58
2023/07/13 12:42:28;;;;;;;3.95;3.10;;;;;;;;;;5028244;28;20151;-59
2023/07/13 12:44:59;;;;;;;3.92;3.03;;;;;;;;;;5028636;28;20056;-57
2023/07/13 12:47:24;;;;;;;4.45;3.58;;;;;;;;;;5030430;28;20548;-59
2023/07/13 12:49:50;;;;;;;5.13;3.25;;;;;;;;;;5030902;28;20182;-58
2023/07/13 12:52:16;;;;;;;4.60;3.70;;;;;;;;;;5032649;28;20041;-58
2023/07/13 12:54:42;;;;;;;4.15;3.45;;;;;;;;;;5027099;28;20040;-58
2023/07/13 12:57:09;;;;;;;4.47;3.50;;;;;;;;;;5031872;28;20098;-58
2023/07/13 12:59:36;;;;;;;4.07;3.30;;;;;;;;;;5051066;23;20507;-79
2023/07/13 13:02:02;;;;;;;4.75;3.30;;;;;;;;;;5021210;28;20121;-78
2023/07/13 13:04:27;;;;;;;4.63;3.50;;;;;;;;;;5028022;28;20147;-78
2023/07/13 13:07:03;;;;;;;4.30;3.40;;;;;;;;;;5014420;28;20115;-79
2023/07/13 13:09:28;;;;;;;4.80;3.28;;;;;;;;;;5026345;28;20037;-79
2023/07/13 13:11:53;;;;;;;4.03;3.20;;;;;;;;;;5026635;28;20055;-79
2023/07/13 13:14:19;;;;;;;3.73;3.03;;;;;;;;;;5031128;28;20033;-78
2023/07/13 13:16:50;;;;;;;3.78;2.97;;;;;;;;;;5028238;28;20029;-78
2023/07/13 13:19:21;;;;;;;6.88;3.38;;;;;;;;;;5043017;28;20207;-79
2023/07/13 13:21:47;;;;;;;5.25;3.20;;;;;;;;;;5022830;28;20039;-79
2023/07/13 13:24:12;;;;;;;4.45;3.20;;;;;;;;;;5027432;28;20123;-79
2023/07/13 13:26:38;;;;;;;4.03;3.33;;;;;;;;;;5011708;28;20040;-79
2023/07/13 13:29:13;;;;;;;4.87;2.93;;;;;;;;;;5005404;28;20076;-79
2023/07/13 13:31:38;;;;;;;4.53;3.20;;;;;;;;;;5022735;28;20090;-76
2023/07/13 13:34:04;;;;;;;4.78;3.42;;;;;;;;;;5039698;28;20029;-75
2023/07/13 13:36:29;;;;;;;4.28;3.28;;;;;;;;;;5028398;28;20026;-80
2023/07/13 13:38:55;;;;;;;3.50;2.70;;;;;;;;;;5028161;28;20761;-79
2023/07/13 13:41:20;;;;;;;4.47;2.90;;;;;;;;;;5019425;28;20295;-77
2023/07/13 13:43:45;;;;;;;4.53;3.23;;;;;;;;;;5018511;28;20049;-80
2023/07/13 13:46:18;;;;;;;3.90;3.05;;;;;;;;;;5020526;28;20197;-76
2023/07/13 13:48:43;;;;;;;4.95;3.17;;;;;;;;;;5027273;28;20045;-80
2023/07/13 13:51:21;;;;;;;4.32;3.30;;;;;;;;;;5006189;28;20636;-78
2023/07/13 13:53:47;;;;;;;4.55;3.00;;;;;;;;;;5024551;28;20049;-78
2023/07/13 13:56:13;;;;;;;4.10;2.95;;;;;;;;;;5024362;28;20051;-79
2023/07/13 13:58:38;;;;;;;4.00;2.92;;;;;;;;;;5025725;28;20406;-79
2023/07/13 14:01:08;;;;;;;3.90;3.15;;;;;;;;;;5010380;28;20169;-79
2023/07/13 14:03:33;;;;;;;4.38;3.17;;;;;;;;;;5027905;28;20025;-80
2023/07/13 14:05:58;;;;;;;4.35;3.10;;;;;;;;;;5026104;28;20021;-79
2023/07/13 14:08:23;;;;;;;3.93;3.13;;;;;;;;;;5025545;28;20021;-81
2023/07/13 14:10:49;;;;;;;4.13;2.90;;;;;;;;;;5003293;28;20043;-81
2023/07/13 14:13:18;;;;;;;4.57;2.72;;;;;;;;;;5023641;28;20100;-79
2023/07/13 14:15:43;;;;;;;4.27;2.93;;;;;;;;;;5023922;28;20720;-79
2023/07/13 14:18:08;;;;;;;4.30;2.73;;;;;;;;;;5041306;28;20112;-79
2023/07/13 14:20:34;;;;;;;4.40;2.90;;;;;;;;;;5026075;28;20033;-80
2023/07/13 14:22:59;;;;;;;4.83;2.77;;;;;;;;;;5023038;28;20295;-80
2023/07/13 14:25:25;;;;;;;4.23;2.93;;;;;;;;;;5001651;28;20288;-80
2023/07/13 14:27:52;;;;;;;4.10;2.83;;;;;;;;;;5025300;28;20029;-81
2023/07/13 14:30:20;;;;;;;3.40;2.45;;;;;;;;;;5022195;28;20044;-81
2023/07/13 14:32:46;;;;;;;3.75;2.78;;;;;;;;;;5002007;28;20143;-80
2023/07/13 14:35:12;;;;;;;4.65;2.75;;;;;;;;;;5021436;28;20124;-79
2023/07/13 14:37:37;;;;;;;4.80;2.90;;;;;;;;;;5043046;28;20499;-80
2023/07/13 14:40:05;;;;;;;4.43;3.10;;;;;;;;;;5026190;28;20043;-78